Time;durP1;ratioP1;P1;durP2;ratioP2;P2;SDS_P1;SDS_P2;PMS_P1;PMS_P2;Temp;Humidity;BMP_temperature;BMP_pressure;BME280_temperature;BME280_humidity;BME280_pressure;Samples;Min_cycle;Max_cycle;Signal;HPM_P1;HPM_P2
2023/08/22 00:00:32;;;;;;;12.50;8.40;;;18.90;99.90;;;;;;5037807;28;20821;-76
2023/08/22 00:02:58;;;;;;;11.98;8.20;;;18.70;99.90;;;;;;5046731;28;20454;-76
2023/08/22 00:25:58;;;;;;;12.80;7.53;;;18.60;99.90;;;;;;5290178;23;20823;31
2023/08/22 00:31:37;;;;;;;10.77;7.22;;;18.70;99.90;;;;;;4844529;23;20458;-77
2023/08/22 00:34:03;;;;;;;13.43;8.02;;;18.70;99.90;;;;;;4858442;29;20442;-75
2023/08/22 00:36:29;;;;;;;14.63;8.40;;;18.40;99.90;;;;;;4840366;29;20460;-76
2023/08/22 00:38:55;;;;;;;12.63;7.72;;;18.50;99.90;;;;;;4841472;29;20529;-76
2023/08/22 00:41:21;;;;;;;12.50;7.82;;;18.60;99.90;;;;;;4860344;29;20517;-76
2023/08/22 00:43:47;;;;;;;13.33;8.23;;;18.40;99.90;;;;;;4841860;29;20867;-76
2023/08/22 00:46:13;;;;;;;13.67;8.40;;;18.30;99.90;;;;;;4842300;29;21015;-75
2023/08/22 00:48:39;;;;;;;11.35;7.80;;;18.30;99.90;;;;;;4826828;29;20471;-75
2023/08/22 00:51:06;;;;;;;11.40;7.90;;;18.20;99.90;;;;;;4839321;29;20483;-76
2023/08/22 00:53:33;;;;;;;12.57;8.07;;;17.80;99.90;;;;;;4828437;29;20454;-77
2023/08/22 01:09:05;;;;;;;12.85;7.85;;;17.80;99.90;;;;;;4963953;23;20449;-79
2023/08/22 01:11:37;;;;;;;12.05;7.20;;;17.90;99.90;;;;;;4900785;29;20537;-78
2023/08/22 01:14:07;;;;;;;12.93;7.27;;;17.90;99.90;;;;;;4898534;29;20738;-78
2023/08/22 01:16:34;;;;;;;12.43;7.40;;;18.20;99.90;;;;;;4900783;29;20461;-78
2023/08/22 01:19:02;;;;;;;11.60;7.60;;;18.00;99.90;;;;;;4917236;29;20484;-78
2023/08/22 01:21:29;;;;;;;13.48;8.05;;;18.10;99.90;;;;;;4913554;29;20445;-78
2023/08/22 01:23:54;;;;;;;12.45;7.78;;;18.00;99.90;;;;;;4896308;29;20441;-78
2023/08/22 01:26:20;;;;;;;11.85;7.22;;;17.90;99.90;;;;;;4900852;29;20436;-79
2023/08/22 01:28:52;;;;;;;13.40;7.50;;;18.10;99.90;;;;;;4899949;29;20437;-78
2023/08/22 01:32:04;;;;;;;13.50;8.48;;;18.00;99.90;;;;;;4916652;29;20500;-78
2023/08/22 01:34:32;;;;;;;13.65;8.35;;;17.70;99.90;;;;;;4826345;29;20454;-79
2023/08/22 01:36:59;;;;;;;13.80;8.32;;;17.80;99.90;;;;;;4886560;29;20510;-78
2023/08/22 01:39:27;;;;;;;12.75;7.97;;;17.70;99.90;;;;;;4900180;29;20414;-78
2023/08/22 01:41:55;;;;;;;13.55;8.07;;;18.10;99.90;;;;;;4900990;29;20417;-78
2023/08/22 01:44:20;;;;;;;11.25;8.27;;;17.80;99.90;;;;;;4901950;29;20439;-79
2023/08/22 01:46:46;;;;;;;11.18;8.15;;;17.80;99.90;;;;;;4901201;29;20417;-78
2023/08/22 01:49:12;;;;;;;11.65;7.72;;;17.70;99.90;;;;;;4901183;29;20431;-79
2023/08/22 01:51:38;;;;;;;13.37;7.87;;;17.70;99.90;;;;;;4885196;29;20437;-79
2023/08/22 01:54:04;;;;;;;10.57;7.00;;;17.70;99.90;;;;;;4900827;29;20457;-79
2023/08/22 01:56:30;;;;;;;12.13;7.90;;;18.00;99.90;;;;;;4870169;29;21025;-78
2023/08/22 01:58:59;;;;;;;12.50;7.70;;;18.00;99.90;;;;;;4881540;29;20417;-78
2023/08/22 02:01:24;;;;;;;11.23;8.05;;;17.80;99.90;;;;;;4913465;29;20467;-79
2023/08/22 02:03:50;;;;;;;14.10;7.97;;;17.80;99.90;;;;;;4897348;29;20483;-79
2023/08/22 02:06:16;;;;;;;14.15;8.57;;;18.00;99.90;;;;;;4900232;29;20448;-78
2023/08/22 02:08:42;;;;;;;12.50;8.27;;;17.70;99.90;;;;;;4902913;29;20480;-77
2023/08/22 02:11:08;;;;;;;14.13;7.33;;;17.40;99.90;;;;;;4885445;29;20432;-77
2023/08/22 02:13:33;;;;;;;13.10;8.10;;;17.50;99.90;;;;;;4889232;29;20960;-78
2023/08/22 02:16:00;;;;;;;11.53;8.30;;;17.60;99.90;;;;;;4896987;29;20504;-79
2023/08/22 02:18:26;;;;;;;14.20;8.20;;;17.40;99.90;;;;;;4884909;29;21014;-80
2023/08/22 02:20:55;;;;;;;13.02;7.82;;;17.80;99.90;;;;;;4900337;29;20436;-78
2023/08/22 02:23:21;;;;;;;12.55;7.40;;;17.60;99.90;;;;;;4896207;29;20492;-79
2023/08/22 02:25:47;;;;;;;10.43;7.47;;;17.50;99.90;;;;;;4898916;29;20445;-79
2023/08/22 02:28:13;;;;;;;10.63;7.03;;;17.70;99.90;;;;;;4877693;29;20465;-79
2023/08/22 02:30:39;;;;;;;11.57;7.13;;;17.40;99.90;;;;;;4885021;29;20445;-79
2023/08/22 02:33:05;;;;;;;11.05;6.97;;;17.40;99.90;;;;;;4885026;29;20445;-79
2023/08/22 02:35:31;;;;;;;11.45;7.43;;;17.40;99.90;;;;;;4884743;29;20414;-79
2023/08/22 02:37:56;;;;;;;10.70;7.10;;;17.80;99.90;;;;;;4874216;29;20434;-79
2023/08/22 02:40:22;;;;;;;11.73;6.78;;;17.80;99.90;;;;;;4882203;29;20446;-79
2023/08/22 02:42:49;;;;;;;15.10;7.47;;;17.60;99.90;;;;;;4893112;29;20497;-78
2023/08/22 02:45:15;;;;;;;11.03;7.67;;;17.50;99.90;;;;;;4900605;29;20477;-79
2023/08/22 02:47:42;;;;;;;11.80;8.10;;;17.20;99.90;;;;;;4868160;29;20955;-79
2023/08/22 02:50:08;;;;;;;12.48;8.02;;;17.30;99.90;;;;;;4900077;29;20424;-78
2023/08/22 02:52:34;;;;;;;13.45;8.15;;;17.40;99.90;;;;;;4898235;29;20429;-78
2023/08/22 02:54:59;;;;;;;13.27;8.32;;;17.50;99.90;;;;;;4901234;29;20954;-78
2023/08/22 02:57:25;;;;;;;13.25;8.38;;;17.40;99.90;;;;;;4899067;29;20417;-78
2023/08/22 02:59:51;;;;;;;12.27;8.15;;;17.20;99.90;;;;;;4899146;29;20424;-79
2023/08/22 03:02:16;;;;;;;11.37;7.63;;;17.40;99.90;;;;;;4902639;29;20516;-79
2023/08/22 03:04:43;;;;;;;12.33;8.13;;;17.00;99.90;;;;;;4888386;29;20431;-79
2023/08/22 03:07:09;;;;;;;12.07;8.25;;;17.30;99.90;;;;;;4901653;29;20989;-79
2023/08/22 03:09:39;;;;;;;10.95;8.38;;;17.00;99.90;;;;;;4883833;29;20524;-79
2023/08/22 03:12:05;;;;;;;11.13;8.48;;;17.20;99.90;;;;;;4884900;29;20430;-79
2023/08/22 03:14:31;;;;;;;13.10;8.77;;;17.10;99.90;;;;;;4892411;29;20521;-79
2023/08/22 03:16:56;;;;;;;13.55;9.10;;;17.10;99.90;;;;;;4915880;29;20491;-79
2023/08/22 03:19:22;;;;;;;13.10;9.05;;;17.00;99.90;;;;;;4896596;29;20437;-79
2023/08/22 03:21:48;;;;;;;13.53;9.10;;;17.20;99.90;;;;;;4900128;29;20433;-78
2023/08/22 03:24:14;;;;;;;14.53;8.63;;;16.70;99.90;;;;;;4873050;29;20841;-78
2023/08/22 03:26:39;;;;;;;16.35;9.25;;;16.80;99.90;;;;;;4884862;29;20457;-79
2023/08/22 03:29:05;;;;;;;14.90;8.40;;;16.80;99.90;;;;;;4896790;29;20465;-79
2023/08/22 03:31:31;;;;;;;17.53;9.47;;;17.20;99.90;;;;;;4856564;29;20413;-78
2023/08/22 03:33:56;;;;;;;11.77;8.70;;;17.00;99.90;;;;;;4889183;29;20437;-78
2023/08/22 03:36:22;;;;;;;13.38;9.27;;;16.90;99.90;;;;;;4884091;29;20457;-79
2023/08/22 03:38:51;;;;;;;15.80;9.57;;;17.10;99.90;;;;;;4901866;29;20425;-80
2023/08/22 03:41:17;;;;;;;14.30;9.13;;;16.90;99.90;;;;;;4900153;29;20425;-78
2023/08/22 03:43:43;;;;;;;14.38;8.48;;;16.80;99.90;;;;;;4900019;29;20991;-78
2023/08/22 03:46:09;;;;;;;13.57;9.02;;;16.80;99.90;;;;;;4911871;29;20451;-78
2023/08/22 03:48:34;;;;;;;14.30;8.80;;;16.70;99.90;;;;;;4900831;29;20433;-78
2023/08/22 03:51:04;;;;;;;10.60;8.37;;;16.50;99.90;;;;;;4883575;29;20435;-78
2023/08/22 03:53:29;;;;;;;11.90;8.45;;;16.90;99.90;;;;;;4898699;29;20441;-79
2023/08/22 03:55:55;;;;;;;13.60;8.17;;;16.60;99.90;;;;;;4883956;29;20437;-79
2023/08/22 03:58:21;;;;;;;11.20;8.10;;;16.70;99.90;;;;;;4897785;29;20435;-79
2023/08/22 04:00:47;;;;;;;11.38;8.13;;;16.70;99.90;;;;;;4917570;29;20433;-78
2023/08/22 04:03:13;;;;;;;13.47;8.40;;;16.70;99.90;;;;;;4895712;29;20967;-78
2023/08/22 04:05:44;;;;;;;12.83;8.27;;;16.50;99.90;;;;;;4900550;29;20524;-78
2023/08/22 04:08:09;;;;;;;14.43;8.40;;;16.80;99.90;;;;;;4896007;29;20835;-78
2023/08/22 04:10:35;;;;;;;13.50;9.13;;;16.40;99.90;;;;;;4913094;29;20432;-79
2023/08/22 04:13:01;;;;;;;12.13;8.20;;;16.60;99.90;;;;;;4884323;29;20435;-78
2023/08/22 04:15:30;;;;;;;13.75;8.82;;;16.80;99.90;;;;;;4893533;29;20461;-77
2023/08/22 04:17:55;;;;;;;13.40;8.33;;;16.40;99.90;;;;;;4898882;29;20440;-79
2023/08/22 04:20:21;;;;;;;12.43;8.70;;;16.50;99.90;;;;;;4918686;29;20405;-79
2023/08/22 04:22:47;;;;;;;11.10;8.38;;;16.40;99.90;;;;;;4900044;29;20504;-79
2023/08/22 04:25:13;;;;;;;14.45;8.65;;;16.50;99.90;;;;;;4916647;29;20469;-79
2023/08/22 04:27:39;;;;;;;14.38;8.45;;;16.20;99.90;;;;;;4917103;29;20421;-79
2023/08/22 04:30:05;;;;;;;14.13;8.77;;;16.00;99.90;;;;;;4900198;29;20436;-79
2023/08/22 04:32:31;;;;;;;13.60;8.73;;;16.00;99.90;;;;;;4894582;29;20440;-79
2023/08/22 04:34:57;;;;;;;12.48;8.23;;;16.30;99.90;;;;;;4893403;29;20470;-78
2023/08/22 04:37:23;;;;;;;13.07;8.77;;;16.10;99.90;;;;;;4885181;29;20504;-79
2023/08/22 04:39:49;;;;;;;14.27;8.60;;;16.30;99.90;;;;;;4898230;29;20431;-79
2023/08/22 04:42:15;;;;;;;17.08;9.88;;;16.40;99.90;;;;;;4902611;29;20440;-79
2023/08/22 04:44:40;;;;;;;13.60;9.07;;;16.30;99.90;;;;;;4888059;29;20837;-80
2023/08/22 04:47:06;;;;;;;12.33;9.33;;;16.20;99.90;;;;;;4874008;29;20524;-79
2023/08/22 04:49:32;;;;;;;16.20;9.38;;;16.10;99.90;;;;;;4898249;29;20439;-79
2023/08/22 04:51:58;;;;;;;13.77;9.70;;;16.30;99.90;;;;;;4878341;29;20479;-79
2023/08/22 04:54:24;;;;;;;14.68;9.88;;;16.30;99.90;;;;;;4899798;29;20456;-79
2023/08/22 04:56:50;;;;;;;15.52;10.00;;;16.10;99.90;;;;;;4899557;29;20433;-79
2023/08/22 04:59:15;;;;;;;18.23;9.75;;;16.10;99.90;;;;;;4898444;29;20917;-79
2023/08/22 05:01:41;;;;;;;15.60;9.53;;;16.20;99.90;;;;;;4897401;29;20431;-79
2023/08/22 05:04:07;;;;;;;15.90;10.40;;;16.00;99.90;;;;;;4899416;29;20468;-78
2023/08/22 05:06:33;;;;;;;17.30;10.80;;;16.10;99.90;;;;;;4884400;29;20500;-79
2023/08/22 05:08:59;;;;;;;18.27;10.90;;;15.90;99.90;;;;;;4866103;29;20500;-79
2023/08/22 05:11:24;;;;;;;16.17;10.70;;;16.10;99.90;;;;;;4886157;29;21043;-79
2023/08/22 05:13:50;;;;;;;16.55;10.57;;;16.00;99.90;;;;;;4867312;29;20434;-78
2023/08/22 05:16:16;;;;;;;15.20;9.80;;;16.10;99.90;;;;;;4898262;29;20932;-80
2023/08/22 05:18:41;;;;;;;16.90;10.15;;;16.10;99.90;;;;;;4900155;29;20428;-79
2023/08/22 05:21:07;;;;;;;15.93;9.70;;;16.20;99.90;;;;;;4898236;29;20466;-79
2023/08/22 05:23:33;;;;;;;17.97;10.33;;;16.00;99.90;;;;;;4891653;29;21027;-80
2023/08/22 05:25:58;;;;;;;17.35;10.63;;;16.10;99.90;;;;;;4916989;29;20433;-79
2023/08/22 05:28:24;;;;;;;15.77;10.60;;;16.30;99.90;;;;;;4886336;29;20435;-79
2023/08/22 05:30:50;;;;;;;15.80;10.17;;;16.30;99.90;;;;;;4867639;29;20895;-79
2023/08/22 05:33:15;;;;;;;14.10;9.57;;;16.30;99.90;;;;;;4882101;29;20543;-79
2023/08/22 05:35:41;;;;;;;16.30;9.73;;;16.40;99.90;;;;;;4862235;29;20437;-79
2023/08/22 05:38:07;;;;;;;13.50;8.85;;;16.40;99.90;;;;;;4900134;29;20429;-79
2023/08/22 05:40:32;;;;;;;14.97;9.67;;;16.70;99.90;;;;;;4892309;29;20426;-79
2023/08/22 05:42:58;;;;;;;15.60;9.20;;;16.70;99.90;;;;;;4910682;29;20712;-81
2023/08/22 05:45:24;;;;;;;20.27;9.57;;;16.80;99.90;;;;;;4893573;29;20418;-82
2023/08/22 05:47:50;;;;;;;14.75;9.27;;;16.90;99.90;;;;;;4876340;29;20444;-80
2023/08/22 05:50:15;;;;;;;14.35;10.30;;;17.00;99.90;;;;;;4900703;29;20405;-81
2023/08/22 05:52:41;;;;;;;14.00;9.57;;;16.90;99.90;;;;;;4917119;29;20488;-81
2023/08/22 05:55:07;;;;;;;13.67;9.07;;;17.10;99.90;;;;;;4897742;29;20854;-81
2023/08/22 05:57:33;;;;;;;14.82;10.13;;;16.90;99.90;;;;;;4879894;29;20470;-81
2023/08/22 06:00:00;;;;;;;14.77;10.13;;;17.10;99.90;;;;;;4879450;29;20464;-81
2023/08/22 06:02:26;;;;;;;15.97;10.23;;;17.10;99.90;;;;;;4883042;29;20444;-79
2023/08/22 06:04:52;;;;;;;15.33;9.93;;;17.10;99.90;;;;;;4898223;29;20834;-80
2023/08/22 06:07:17;;;;;;;14.00;9.60;;;17.10;99.90;;;;;;4903541;29;20427;-80
2023/08/22 06:09:43;;;;;;;14.70;10.10;;;17.20;99.90;;;;;;4887136;29;20448;-80
2023/08/22 06:12:09;;;;;;;16.67;9.80;;;17.40;99.90;;;;;;4905108;29;20476;-76
2023/08/22 06:14:35;;;;;;;16.40;10.20;;;17.30;99.90;;;;;;4904053;29;20441;-76
2023/08/22 06:17:01;;;;;;;16.02;9.43;;;17.40;99.90;;;;;;4916616;29;21093;-76
2023/08/22 06:19:27;;;;;;;16.15;9.55;;;17.40;99.90;;;;;;4894993;29;20436;-76
2023/08/22 06:21:53;;;;;;;14.07;9.80;;;17.50;99.90;;;;;;4891783;29;20447;-77
2023/08/22 06:24:19;;;;;;;14.20;9.70;;;17.60;99.90;;;;;;4907505;29;20460;-76
2023/08/22 06:26:45;;;;;;;14.75;9.73;;;17.60;99.90;;;;;;4908241;29;20435;-76
2023/08/22 06:29:10;;;;;;;15.40;9.32;;;17.70;99.90;;;;;;4894159;29;20455;-76
2023/08/22 06:31:36;;;;;;;14.35;9.10;;;17.70;99.90;;;;;;4914053;29;20425;-76
2023/08/22 06:34:02;;;;;;;11.83;8.80;;;17.90;99.90;;;;;;4915990;29;20444;-76
2023/08/22 06:36:28;;;;;;;13.30;8.80;;;18.10;99.90;;;;;;4917363;29;20433;-76
2023/08/22 06:38:54;;;;;;;12.53;8.60;;;19.00;99.90;;;;;;4914491;29;20452;-76
2023/08/22 06:41:20;;;;;;;11.40;8.17;;;18.60;99.90;;;;;;4889026;29;20522;-76
2023/08/22 06:43:46;;;;;;;14.63;8.10;;;16.80;99.90;;;;;;4884674;29;20418;-76
2023/08/22 06:46:13;;;;;;;12.32;7.50;;;18.70;99.90;;;;;;4913087;29;20793;-76
2023/08/22 06:48:38;;;;;;;11.83;7.60;;;19.10;99.90;;;;;;4883634;29;20523;-76
2023/08/22 06:51:04;;;;;;;13.57;7.87;;;19.20;99.90;;;;;;4897592;29;20500;-77
2023/08/22 06:53:30;;;;;;;9.65;7.60;;;19.10;99.90;;;;;;4911588;29;20426;-76
2023/08/22 06:55:56;;;;;;;11.38;7.78;;;19.40;99.90;;;;;;4908713;29;20426;-76
2023/08/22 06:58:22;;;;;;;10.68;7.45;;;19.20;99.90;;;;;;4911637;29;20443;-76
2023/08/22 07:00:48;;;;;;;11.57;7.28;;;19.70;99.90;;;;;;4917965;29;20432;-77
2023/08/22 07:03:14;;;;;;;11.60;7.60;;;19.40;99.90;;;;;;4901667;29;20421;-76
2023/08/22 07:05:40;;;;;;;12.80;7.45;;;18.40;99.90;;;;;;4914963;29;20853;-76
2023/08/22 07:08:07;;;;;;;12.95;7.97;;;19.70;99.90;;;;;;4914476;29;20429;-76
2023/08/22 07:10:34;;;;;;;12.02;7.15;;;19.60;99.90;;;;;;4898141;29;20425;-78
2023/08/22 07:13:00;;;;;;;11.68;7.80;;;19.60;99.90;;;;;;4907115;29;20438;-77
2023/08/22 07:15:26;;;;;;;12.10;7.50;;;19.50;99.90;;;;;;4892969;29;20437;-79
2023/08/22 07:17:52;;;;;;;10.57;7.30;;;19.80;99.90;;;;;;4915553;29;20425;-78
2023/08/22 07:20:17;;;;;;;9.82;6.78;;;20.00;99.90;;;;;;4893464;29;20427;-79
2023/08/22 07:22:44;;;;;;;10.65;6.90;;;20.30;99.90;;;;;;4905626;29;20428;-80
2023/08/22 07:25:10;;;;;;;12.45;6.75;;;20.50;99.90;;;;;;4902307;29;20437;-80
2023/08/22 07:27:36;;;;;;;10.97;6.33;;;20.60;99.90;;;;;;4889922;29;20932;-80
2023/08/22 07:30:03;;;;;;;9.83;6.10;;;20.60;99.90;;;;;;4902736;29;21082;-79
2023/08/22 07:32:29;;;;;;;8.85;5.70;;;20.60;99.90;;;;;;4877832;29;20449;-80
2023/08/22 07:34:56;;;;;;;10.90;5.63;;;20.70;99.90;;;;;;4879741;29;20499;-79
2023/08/22 07:37:22;;;;;;;9.53;5.60;;;20.50;99.90;;;;;;4909704;29;20488;-79
2023/08/22 07:39:48;;;;;;;9.48;5.35;;;20.80;99.90;;;;;;4890594;29;20436;-80
2023/08/22 07:42:14;;;;;;;8.25;5.40;;;20.80;99.90;;;;;;4895873;29;20759;-80
2023/08/22 07:44:40;;;;;;;7.63;5.28;;;20.80;99.90;;;;;;4884277;29;20440;-80
2023/08/22 07:47:06;;;;;;;11.30;5.60;;;20.90;99.90;;;;;;4880124;29;20475;-80
2023/08/22 07:49:31;;;;;;;9.13;5.90;;;20.60;99.90;;;;;;4882811;29;20423;-80
2023/08/22 07:51:58;;;;;;;9.88;5.93;;;20.70;99.90;;;;;;4880339;29;21016;-80
2023/08/22 07:54:24;;;;;;;10.10;5.53;;;20.90;99.90;;;;;;4892443;29;20516;-79
2023/08/22 07:56:49;;;;;;;32.63;6.80;;;21.40;99.90;;;;;;4909868;29;20558;-79
2023/08/22 07:59:15;;;;;;;16.88;6.57;;;20.80;99.90;;;;;;4915120;29;20551;-79
2023/08/22 08:01:41;;;;;;;10.23;5.80;;;21.20;99.90;;;;;;4882083;29;20831;-79
2023/08/22 08:04:08;;;;;;;11.50;6.20;;;21.00;99.90;;;;;;4897615;29;20464;-79
2023/08/22 08:06:35;;;;;;;8.60;5.70;;;21.20;99.90;;;;;;4863833;29;20437;-79
2023/08/22 08:09:02;;;;;;;10.93;6.15;;;21.10;99.90;;;;;;4877300;29;20840;-79
2023/08/22 08:11:29;;;;;;;11.48;6.20;;;21.10;99.90;;;;;;4898233;29;20851;-77
2023/08/22 08:13:55;;;;;;;10.75;6.28;;;21.60;99.90;;;;;;4883199;29;20484;-77
2023/08/22 08:16:21;;;;;;;12.43;6.30;;;21.50;99.90;;;;;;4905539;29;20427;-78
2023/08/22 08:18:48;;;;;;;9.30;5.88;;;21.50;99.90;;;;;;4893924;29;20474;-78
2023/08/22 08:21:14;;;;;;;10.35;6.03;;;21.80;99.90;;;;;;4888191;29;20447;-81
2023/08/22 08:23:40;;;;;;;8.07;5.50;;;21.70;99.90;;;;;;4903153;29;20452;-80
2023/08/22 08:26:07;;;;;;;8.77;5.93;;;22.40;99.90;;;;;;4911269;29;20450;-78
2023/08/22 08:28:33;;;;;;;10.02;5.63;;;22.20;99.90;;;;;;4880497;29;20492;-78
2023/08/22 08:30:59;;;;;;;10.57;5.70;;;20.50;99.90;;;;;;4868520;29;20461;-78
2023/08/22 08:33:25;;;;;;;10.30;6.00;;;22.30;99.90;;;;;;4891772;29;20476;-78
2023/08/22 08:35:51;;;;;;;8.18;5.50;;;22.20;99.90;;;;;;4912281;29;20428;-79
2023/08/22 08:38:17;;;;;;;8.43;5.10;;;22.40;99.90;;;;;;4896695;29;20496;-79
2023/08/22 08:40:44;;;;;;;10.40;6.10;;;22.50;99.90;;;;;;4914416;29;20429;-80
2023/08/22 08:43:10;;;;;;;12.13;6.00;;;22.60;99.90;;;;;;4906682;29;20444;-80
2023/08/22 08:45:36;;;;;;;9.60;5.30;;;22.80;99.90;;;;;;4895550;29;20433;-79
2023/08/22 08:48:03;;;;;;;10.15;5.30;;;23.00;99.90;;;;;;4916268;29;20461;-80
2023/08/22 08:50:30;;;;;;;12.43;5.80;;;23.20;99.90;;;;;;4913232;29;20473;-79
2023/08/22 08:52:56;;;;;;;10.13;5.85;;;23.30;99.90;;;;;;4895267;29;20433;-79
2023/08/22 08:55:22;;;;;;;9.25;5.78;;;23.50;99.90;;;;;;4908568;29;20459;-78
2023/08/22 08:57:49;;;;;;;8.23;5.47;;;23.50;99.90;;;;;;4898098;29;20435;-79
2023/08/22 09:00:15;;;;;;;8.90;6.00;;;23.80;99.90;;;;;;4897743;29;20425;-79
2023/08/22 09:02:41;;;;;;;10.35;5.75;;;24.00;99.90;;;;;;4888044;29;20422;-79
2023/08/22 09:05:09;;;;;;;7.88;5.20;;;24.30;99.90;;;;;;4895603;29;20436;-82
2023/08/22 09:07:36;;;;;;;9.37;5.50;;;24.40;99.90;;;;;;4894098;29;20911;-82
2023/08/22 09:10:02;;;;;;;9.32;5.43;;;24.20;99.90;;;;;;4883441;29;20446;-81
2023/08/22 09:12:36;;;;;;;9.63;4.78;;;24.00;99.90;;;;;;4881343;29;20952;-81
2023/08/22 09:15:02;;;;;;;9.50;4.18;;;24.20;99.90;;;;;;4896791;29;20434;-81
2023/08/22 09:17:30;;;;;;;8.27;4.53;;;24.40;99.90;;;;;;4883930;29;20440;-82
2023/08/22 09:20:11;;;;;;;7.38;4.85;;;24.20;99.90;;;;;;5153416;27;20374;-81
2023/08/22 09:22:37;;;;;;;7.25;4.70;;;25.00;99.90;;;;;;5132182;27;20477;-81
2023/08/22 09:25:07;;;;;;;8.17;4.77;;;25.10;99.90;;;;;;5131419;27;20417;-80
2023/08/22 09:27:33;;;;;;;7.77;4.40;;;25.10;99.90;;;;;;5133454;27;20453;-80
2023/08/22 09:30:00;;;;;;;7.93;4.68;;;24.90;99.90;;;;;;5096218;28;20489;-81
2023/08/22 09:32:26;;;;;;;8.73;5.18;;;24.50;99.90;;;;;;5136712;27;20797;-80
2023/08/22 09:34:56;;;;;;;8.88;4.97;;;24.30;99.90;;;;;;5113729;28;20455;-79
2023/08/22 09:37:36;;;;;;;8.85;5.28;;;24.10;99.90;;;;;;5095539;27;20534;-80
2023/08/22 09:40:07;;;;;;;8.17;4.93;;;24.10;99.90;;;;;;5128931;27;20422;-81
2023/08/22 09:42:38;;;;;;;9.88;5.28;;;24.10;99.90;;;;;;5130997;27;20722;-81
2023/08/22 09:45:05;;;;;;;10.23;5.40;;;24.40;99.90;;;;;;5126512;27;20439;-81
2023/08/22 09:47:31;;;;;;;10.07;5.18;;;24.30;99.90;;;;;;5133623;27;20422;-81
2023/08/22 09:50:05;;;;;;;7.38;4.88;;;24.40;99.90;;;;;;5120340;27;20512;-81
2023/08/22 09:52:31;;;;;;;9.70;4.80;;;24.40;99.90;;;;;;5112256;27;20468;-81
2023/08/22 09:54:57;;;;;;;8.00;5.10;;;24.90;99.90;;;;;;5133460;27;20452;-81
2023/08/22 09:57:27;;;;;;;10.63;6.40;;;25.20;99.90;;;;;;5146395;27;20412;-81
2023/08/22 09:59:53;;;;;;;11.43;6.30;;;25.30;99.90;;;;;;5124301;27;21329;-81
2023/08/22 10:02:19;;;;;;;13.38;5.25;;;25.30;99.90;;;;;;5114139;28;20407;-81
2023/08/22 10:04:48;;;;;;;8.93;5.15;;;25.10;99.90;;;;;;5113669;27;20844;-81
2023/08/22 10:07:14;;;;;;;7.13;4.95;;;25.20;99.90;;;;;;5160710;27;20403;-81
2023/08/22 10:09:42;;;;;;;9.17;4.90;;;25.00;99.90;;;;;;5108685;28;20481;-82
2023/08/22 10:12:11;;;;;;;8.80;4.70;;;24.80;99.90;;;;;;5111369;28;20428;-81
2023/08/22 10:14:50;;;;;;;7.68;4.85;;;25.00;99.90;;;;;;5150020;27;20395;-81
2023/08/22 10:17:16;;;;;;;8.88;4.57;;;25.20;99.90;;;;;;5123720;27;20421;-80
2023/08/22 10:19:42;;;;;;;9.65;4.15;;;25.10;99.90;;;;;;5118234;27;20440;-80
2023/08/22 10:22:15;;;;;;;5.20;3.50;;;24.80;99.90;;;;;;5148857;27;20421;-81
2023/08/22 10:24:42;;;;;;;9.90;3.93;;;24.90;99.90;;;;;;5108125;28;20470;-81
2023/08/22 10:27:12;;;;;;;6.88;3.70;;;25.10;99.90;;;;;;5119401;27;20475;-80
2023/08/22 10:29:45;;;;;;;9.53;3.80;;;25.20;99.90;;;;;;5109721;28;20428;-81
2023/08/22 10:32:11;;;;;;;7.85;3.60;;;24.90;99.90;;;;;;5100608;28;20501;-83
2023/08/22 10:34:40;;;;;;;5.25;3.28;;;25.20;99.90;;;;;;5097270;28;20468;-82
2023/08/22 10:37:16;;;;;;;8.48;3.40;;;25.00;99.90;;;;;;5129674;27;20505;-82
2023/08/22 10:39:46;;;;;;;7.22;3.10;;;25.10;99.90;;;;;;5113088;28;20503;-82
2023/08/22 10:42:22;;;;;;;6.27;3.00;;;25.00;99.90;;;;;;5110519;28;20443;-82
2023/08/22 10:44:49;;;;;;;8.55;3.30;;;25.00;99.90;;;;;;5071214;28;20410;-81
2023/08/22 10:47:16;;;;;;;6.67;2.80;;;25.00;99.90;;;;;;5123171;27;20424;-82
2023/08/22 10:49:42;;;;;;;6.95;2.53;;;25.20;99.90;;;;;;5088305;28;20414;-82
2023/08/22 10:52:10;;;;;;;7.30;2.30;;;25.70;99.90;;;;;;5087681;28;20750;-83
2023/08/22 10:55:00;;;;;;;4.63;2.20;;;26.10;99.90;;;;;;5128750;27;20423;-81
2023/08/22 10:57:32;;;;;;;5.13;2.30;;;25.90;99.90;;;;;;5097082;28;20464;-83
2023/08/22 11:00:13;;;;;;;4.63;2.20;;;26.10;99.90;;;;;;5092224;28;20420;-81
2023/08/22 11:02:40;;;;;;;6.70;2.30;;;26.00;99.90;;;;;;5106557;28;20424;-82
2023/08/22 11:05:10;;;;;;;5.37;2.00;;;26.20;99.90;;;;;;5134966;27;20985;-82
2023/08/22 11:07:37;;;;;;;5.40;1.95;;;26.20;99.90;;;;;;5077309;28;20410;-82
2023/08/22 11:10:04;;;;;;;6.13;2.35;;;26.20;99.90;;;;;;5080904;28;20505;-82
2023/08/22 11:12:30;;;;;;;6.30;2.22;;;26.10;99.90;;;;;;5103120;28;20421;-81
2023/08/22 11:14:59;;;;;;;6.30;2.43;;;26.50;99.90;;;;;;5108044;28;20440;-81
2023/08/22 11:17:25;;;;;;;4.90;2.60;;;26.40;99.90;;;;;;5106284;28;20418;-82
2023/08/22 11:19:57;;;;;;;6.65;2.53;;;26.60;99.90;;;;;;5111130;27;20429;-82
2023/08/22 11:22:23;;;;;;;5.17;2.57;;;26.30;99.90;;;;;;5101879;28;20404;-82
2023/08/22 11:24:50;;;;;;;5.97;2.10;;;25.90;99.90;;;;;;5113786;27;20773;-82
2023/08/22 11:27:17;;;;;;;4.15;1.80;;;25.70;99.90;;;;;;5107390;28;20416;-83
2023/08/22 11:29:49;;;;;;;3.50;1.60;;;25.70;99.90;;;;;;5091276;28;20412;-82
2023/08/22 11:32:41;;;;;;;4.60;1.90;;;25.80;99.90;;;;;;5129257;27;20907;-82
2023/08/22 11:35:08;;;;;;;5.50;2.20;;;25.70;99.90;;;;;;5091614;28;20765;-82
2023/08/22 11:37:41;;;;;;;4.53;2.05;;;26.20;99.90;;;;;;5097012;28;20418;-83
2023/08/22 11:40:09;;;;;;;5.57;2.08;;;26.10;99.90;;;;;;5084251;28;20840;-81
2023/08/22 11:42:36;;;;;;;6.18;2.45;;;26.40;99.90;;;;;;5134438;27;20455;-81
2023/08/22 11:45:13;;;;;;;5.38;2.67;;;26.20;99.90;;;;;;5105175;28;20418;-85
2023/08/22 11:47:53;;;;;;;5.35;2.42;;;26.10;99.90;;;;;;5108078;28;20432;-82
2023/08/22 11:50:27;;;;;;;6.90;2.72;;;26.40;99.90;;;;;;5108615;28;20413;-82
2023/08/22 11:52:57;;;;;;;5.68;2.80;;;26.70;99.90;;;;;;5087124;28;20459;-82
2023/08/22 11:55:26;;;;;;;7.10;2.67;;;26.80;99.90;;;;;;5108331;28;20421;-83
2023/08/22 11:58:05;;;;;;;5.25;2.83;;;26.90;99.90;;;;;;5087669;28;20406;-83
2023/08/22 12:00:34;;;;;;;7.25;3.17;;;27.10;99.90;;;;;;5094626;28;20481;-83
2023/08/22 12:03:02;;;;;;;6.13;3.60;;;25.90;99.90;;;;;;5103009;28;20413;-82
2023/08/22 12:05:34;;;;;;;6.20;3.15;;;27.20;99.90;;;;;;5100625;28;20414;-82
2023/08/22 12:08:05;;;;;;;6.40;2.72;;;27.20;99.90;;;;;;5076583;28;20950;-82
2023/08/22 12:10:43;;;;;;;6.70;3.20;;;27.30;99.90;;;;;;5130842;27;20422;-81
2023/08/22 12:13:11;;;;;;;6.28;3.50;;;27.70;99.90;;;;;;5086894;28;20442;-83
2023/08/22 12:15:38;;;;;;;6.57;3.08;;;27.80;99.90;;;;;;5098907;28;20424;-84
2023/08/22 12:18:04;;;;;;;6.22;3.30;;;28.20;99.90;;;;;;5100567;28;20443;-84
2023/08/22 12:20:34;;;;;;;7.35;3.05;;;28.20;99.90;;;;;;5107309;28;20419;-83
2023/08/22 12:23:04;;;;;;;9.82;3.63;;;28.50;99.90;;;;;;5108619;28;20458;-82
2023/08/22 12:25:30;;;;;;;6.03;3.80;;;28.30;99.90;;;;;;5103490;28;20413;-82
2023/08/22 12:27:55;;;;;;;6.82;3.50;;;28.00;99.90;;;;;;5102613;28;20437;-82
2023/08/22 12:30:21;;;;;;;7.07;3.00;;;27.50;99.90;;;;;;5118893;27;20940;-81
2023/08/22 12:32:47;;;;;;;5.65;2.70;;;27.50;99.90;;;;;;5085286;28;20448;-82
2023/08/22 12:35:13;;;;;;;6.40;2.97;;;27.70;99.90;;;;;;5118590;27;20459;-82
2023/08/22 12:37:39;;;;;;;8.77;3.15;;;27.70;99.90;;;;;;5106193;28;20479;-81
2023/08/22 12:40:12;;;;;;;4.57;2.20;;;27.80;99.90;;;;;;5110076;28;20424;-82
2023/08/22 12:42:47;;;;;;;5.20;2.60;;;27.70;99.90;;;;;;5082457;28;20414;-83
2023/08/22 12:45:12;;;;;;;6.17;2.80;;;27.60;99.90;;;;;;5109473;28;20447;-83
2023/08/22 12:47:43;;;;;;;5.35;2.58;;;27.80;99.90;;;;;;5091201;28;20442;-83
2023/08/22 12:50:10;;;;;;;5.65;2.50;;;28.10;99.90;;;;;;5078880;28;20476;-84
2023/08/22 12:52:37;;;;;;;5.43;2.00;;;28.40;99.90;;;;;;5093442;28;20421;-79
2023/08/22 12:55:07;;;;;;;7.20;2.65;;;28.10;99.90;;;;;;5121735;27;20416;-79
2023/08/22 12:57:35;;;;;;;4.68;2.20;;;28.50;99.90;;;;;;5085433;28;20417;-79
2023/08/22 13:00:02;;;;;;;3.53;2.00;;;28.80;99.90;;;;;;5109975;27;20951;-78
2023/08/22 13:02:28;;;;;;;6.65;2.50;;;28.80;99.70;;;;;;5104518;28;20402;-85
2023/08/22 13:04:53;;;;;;;4.72;2.47;;;28.70;99.50;;;;;;5094663;28;20417;-84
2023/08/22 13:07:19;;;;;;;5.00;1.90;;;29.00;99.70;;;;;;5109741;28;20420;-84
2023/08/22 13:09:46;;;;;;;6.53;2.33;;;29.00;99.00;;;;;;5101596;28;20928;-85
2023/08/22 13:12:11;;;;;;;7.95;3.10;;;28.90;98.80;;;;;;5089641;28;20439;-85
2023/08/22 13:14:37;;;;;;;5.87;2.60;;;29.10;99.10;;;;;;5098198;28;20429;-83
2023/08/22 13:17:04;;;;;;;6.63;3.03;;;28.90;99.20;;;;;;5095110;28;20471;-84